Airport View

Enter AWOS ICAO identifier for current METAR.

ex. KFNL

KSEA 191153Z 18007KT 10SM SCT010 BKN017 OVC023 04/02 A3026 RMK AO2 SLP255 70005 T00390017 10050 20039 58010

19 Feb 2019 12:56

Phone: 206-214-2592

Other Area AWOS: KRNT - KBFI - KTIW - KPWT

TAF KSEA 191135Z 1912/2018 17007KT P6SM BKN012 OVC025 FM192100 18009KT P6SM -RA OVC014 FM200900 22010KT 5SM -SHRA BR BKN012 BKN025 FM201500 VRB05KT P6SM VCSH BKN015 BKN030